Flugplatz Hettstadt

Für EDGH sind keine METAR/TAF Berichte vorhanden.
Es werden die Flugwettermeldungen vom Flugplatz Niederstetten Airport in 46 km Entfernung angezeigt.

Bericht für ETHN

vom 25.01. um 23:20 UTC

Wind 2 kt aus 110°

Sichtweite 6000 m

aufgebrochene Bewölkung in 8000 ft

aufgelockert bewölkt in 11000 ft

Temperatur -1.0°C

Taupunkt -2.0°C

Luftfeuchtigkeit 93%

Luftdruck 1019 hPa

ETHN 252320Z 11002KT 6000 BKN080 SCT110 M01/M02 Q1019 WHT
Keine Prognose (TAF) verfügbar.
Impressum